createdAt,value
2018-07-01T00:00:19.765Z,61.30
2018-07-01T00:02:48.117Z,61.00
2018-07-01T00:05:16.603Z,61.30
2018-07-01T00:07:45.055Z,61.30
2018-07-01T00:10:13.587Z,61.90
2018-07-01T00:12:42.046Z,61.60
2018-07-01T00:15:10.538Z,62.70
2018-07-01T00:17:38.980Z,61.90
2018-07-01T00:20:08.998Z,62.80
2018-07-01T00:22:37.999Z,62.40
2018-07-01T00:25:06.866Z,62.30
2018-07-01T00:27:35.313Z,63.60
2018-07-01T00:30:03.952Z,63.60
2018-07-01T00:32:32.398Z,63.50
2018-07-01T00:35:00.879Z,63.80
2018-07-01T00:37:29.339Z,63.80
2018-07-01T00:39:57.873Z,64.30
2018-07-01T00:42:26.318Z,64.30
2018-07-01T00:44:54.781Z,64.20
2018-07-01T00:47:23.217Z,64.70
2018-07-01T00:49:51.706Z,66.00
2018-07-01T00:52:20.129Z,65.20
2018-07-01T00:54:48.545Z,66.10
2018-07-01T00:57:16.991Z,66.30
2018-07-01T00:59:45.425Z,66.20
2018-07-01T01:02:13.860Z,66.40
2018-07-01T01:04:42.280Z,66.90
2018-07-01T01:07:10.713Z,66.80
2018-07-01T01:09:39.195Z,67.10
2018-07-01T01:12:07.603Z,67.60
2018-07-01T01:14:36.063Z,66.90
2018-07-01T01:17:04.518Z,67.60
2018-07-01T01:19:33.001Z,68.40
2018-07-01T01:22:01.497Z,68.00
2018-07-01T01:24:30.069Z,68.70
2018-07-01T01:26:58.545Z,67.80
2018-07-01T01:29:26.987Z,68.20
2018-07-01T01:31:55.449Z,67.80
2018-07-01T01:36:52.174Z,68.00
2018-07-01T01:39:25.858Z,69.30
2018-07-01T01:41:58.744Z,68.50
2018-07-01T01:44:31.940Z,68.40
2018-07-01T01:47:05.325Z,68.30
2018-07-01T01:49:41.112Z,68.50
2018-07-01T01:52:18.879Z,69.20
2018-07-01T01:54:54.422Z,69.00
2018-07-01T01:57:30.211Z,68.80
2018-07-01T02:00:04.632Z,69.00
2018-07-01T02:03:35.977Z,68.60
2018-07-01T02:06:08.865Z,68.90
2018-07-01T02:08:41.299Z,69.30
2018-07-01T02:11:09.859Z,69.00
2018-07-01T02:13:41.281Z,69.10
2018-07-01T02:16:14.062Z,69.30
2018-07-01T02:18:42.562Z,69.40
2018-07-01T02:23:44.793Z,69.70
2018-07-01T02:26:13.261Z,69.30
2018-07-01T02:28:41.781Z,69.50
2018-07-01T02:31:10.305Z,69.50
2018-07-01T02:33:38.783Z,69.80
2018-07-01T02:36:07.221Z,70.20
2018-07-01T02:38:35.724Z,69.90
2018-07-01T02:41:04.190Z,70.10
2018-07-01T02:43:32.747Z,70.00
2018-07-01T02:46:01.253Z,70.30
2018-07-01T02:48:29.747Z,70.10
2018-07-01T02:50:58.284Z,70.40
2018-07-01T02:53:26.761Z,71.20
2018-07-01T02:55:55.205Z,71.20
2018-07-01T02:58:23.710Z,70.90
2018-07-01T03:00:52.223Z,70.80
2018-07-01T03:03:20.742Z,71.60
2018-07-01T03:05:49.275Z,71.20
2018-07-01T03:08:17.882Z,72.30
2018-07-01T03:10:46.503Z,72.20
2018-07-01T03:13:15.179Z,72.30
2018-07-01T03:15:43.864Z,72.50
2018-07-01T03:18:12.663Z,72.40
2018-07-01T03:20:41.583Z,72.50
2018-07-01T03:23:10.200Z,72.40
2018-07-01T03:25:38.811Z,72.70
2018-07-01T03:28:07.822Z,72.60
2018-07-01T03:30:36.568Z,73.60
2018-07-01T03:33:05.493Z,73.20
2018-07-01T03:35:34.204Z,73.90
2018-07-01T03:38:02.991Z,73.40
2018-07-01T03:40:31.822Z,72.80
2018-07-01T03:43:00.544Z,73.60
2018-07-01T03:47:57.669Z,73.60
2018-07-01T03:50:26.328Z,76.40
2018-07-01T03:52:55.012Z,78.00
2018-07-01T03:55:23.559Z,76.20
2018-07-01T03:57:52.239Z,74.70
2018-07-01T04:00:21.212Z,74.30
2018-07-01T04:02:49.816Z,74.40
2018-07-01T04:07:46.816Z,73.90
2018-07-01T04:10:15.428Z,74.40
2018-07-01T04:12:44.285Z,73.70
2018-07-01T04:15:12.939Z,74.10
2018-07-01T04:17:41.762Z,74.30
2018-07-01T04:20:10.421Z,73.80
2018-07-01T04:22:39.079Z,74.00
2018-07-01T04:25:07.756Z,74.30
2018-07-01T04:27:36.573Z,74.50
2018-07-01T04:32:34.295Z,74.20
2018-07-01T04:35:03.184Z,74.30
2018-07-01T04:37:31.898Z,74.60
2018-07-01T04:40:00.689Z,74.30
2018-07-01T04:42:29.578Z,74.30
2018-07-01T04:44:58.431Z,74.20
2018-07-01T04:47:27.074Z,74.20
2018-07-01T04:49:55.877Z,74.90
2018-07-01T04:54:53.247Z,74.60
2018-07-01T04:57:22.145Z,74.70
2018-07-01T04:59:50.981Z,74.30
2018-07-01T05:02:20.910Z,74.00
2018-07-01T05:04:49.761Z,73.50
2018-07-01T05:07:18.825Z,73.60
2018-07-01T05:09:47.573Z,73.90
2018-07-01T05:12:16.295Z,74.00
2018-07-01T05:17:13.664Z,74.50
2018-07-01T05:19:42.529Z,74.40
2018-07-01T05:22:11.355Z,74.60
2018-07-01T05:24:40.020Z,74.00
2018-07-01T05:27:08.765Z,74.20
2018-07-01T05:29:37.470Z,74.40
2018-07-01T05:32:06.170Z,73.70
2018-07-01T05:34:34.893Z,73.70
2018-07-01T05:37:03.631Z,74.10
2018-07-01T05:39:32.217Z,73.60
2018-07-01T05:42:00.755Z,73.90
2018-07-01T05:44:29.414Z,74.00
2018-07-01T05:46:58.069Z,74.10
2018-07-01T05:49:26.720Z,73.50
2018-07-01T05:51:55.262Z,73.90
2018-07-01T05:54:24.095Z,73.60
2018-07-01T05:56:52.845Z,73.30
2018-07-01T05:59:21.426Z,73.40
2018-07-01T06:01:49.944Z,73.40
2018-07-01T06:04:18.557Z,73.10
2018-07-01T06:06:47.176Z,73.10
2018-07-01T06:09:15.786Z,72.70
2018-07-01T06:11:44.276Z,72.60
2018-07-01T06:14:13.001Z,72.90
2018-07-01T06:16:41.612Z,73.00
2018-07-01T06:19:10.321Z,72.50
2018-07-01T06:21:39.540Z,72.00
2018-07-01T06:24:08.040Z,72.20
2018-07-01T06:26:36.602Z,71.70
2018-07-01T06:29:05.154Z,71.90
2018-07-01T06:31:33.695Z,72.50
2018-07-01T06:34:02.249Z,71.60
2018-07-01T06:36:31.021Z,71.60
2018-07-01T06:38:59.487Z,71.20
2018-07-01T06:41:27.975Z,71.40
2018-07-01T06:43:56.406Z,71.20
2018-07-01T06:46:25.038Z,71.20
2018-07-01T06:51:21.694Z,70.20
2018-07-01T06:53:50.134Z,71.00
2018-07-01T06:56:18.595Z,69.30
2018-07-01T06:58:47.054Z,70.90
2018-07-01T07:01:15.510Z,70.40
2018-07-01T07:03:43.946Z,69.70
2018-07-01T07:06:12.430Z,68.60
2018-07-01T07:08:40.931Z,70.10
2018-07-01T07:11:09.377Z,70.10
2018-07-01T07:13:37.868Z,70.60
2018-07-01T07:16:06.311Z,70.30
2018-07-01T07:18:34.796Z,69.60
2018-07-01T07:21:03.237Z,67.20
2018-07-01T07:23:32.029Z,68.10
2018-07-01T07:26:00.491Z,69.50
2018-07-01T07:28:28.937Z,68.30
2018-07-01T07:30:57.498Z,66.90
2018-07-01T07:33:25.943Z,67.30
2018-07-01T07:35:54.419Z,66.00
2018-07-01T07:38:22.886Z,64.40
2018-07-01T07:40:51.331Z,65.90
2018-07-01T07:43:19.774Z,62.60
2018-07-01T07:45:48.225Z,63.40
2018-07-01T07:48:16.673Z,64.30
2018-07-01T07:50:45.138Z,61.70
2018-07-01T07:55:41.777Z,61.50
2018-07-01T07:58:10.299Z,60.80
2018-07-01T08:00:38.764Z,59.70
2018-07-01T08:03:07.375Z,61.20
2018-07-01T08:05:37.985Z,56.30
2018-07-01T08:08:06.709Z,56.10
2018-07-01T08:10:35.221Z,55.00
2018-07-01T08:13:03.751Z,55.60
2018-07-01T08:15:33.355Z,52.80
2018-07-01T08:18:01.815Z,51.70
2018-07-01T08:20:30.304Z,51.70
2018-07-01T08:22:58.723Z,49.80
2018-07-01T08:25:27.203Z,52.30
2018-07-01T08:27:55.680Z,51.30
2018-07-01T08:30:24.223Z,49.00
2018-07-01T08:32:52.669Z,48.50
2018-07-01T08:35:21.125Z,48.20
2018-07-01T08:37:49.601Z,47.40
2018-07-01T08:40:18.077Z,45.30
2018-07-01T08:42:46.573Z,44.70
2018-07-01T08:45:15.029Z,46.40
2018-07-01T08:47:43.522Z,45.10
2018-07-01T08:50:12.005Z,43.00
2018-07-01T08:52:40.494Z,43.30
2018-07-01T08:55:08.970Z,40.70
2018-07-01T08:57:37.481Z,40.80
2018-07-01T09:00:07.165Z,40.40
2018-07-01T09:02:35.806Z,40.80
2018-07-01T09:05:04.771Z,41.10
2018-07-01T09:10:01.377Z,40.10
2018-07-01T09:12:29.840Z,41.90
2018-07-01T09:14:59.577Z,40.60
2018-07-01T09:17:28.038Z,38.20
2018-07-01T09:19:56.520Z,38.70
2018-07-01T09:22:24.977Z,39.50
2018-07-01T09:24:54.149Z,36.60
2018-07-01T09:27:22.680Z,36.60
2018-07-01T09:29:56.445Z,37.60
2018-07-01T09:32:24.934Z,37.70
2018-07-01T09:34:53.362Z,39.10
2018-07-01T09:37:21.802Z,37.70
2018-07-01T09:39:50.278Z,37.20
2018-07-01T09:42:18.733Z,35.60
2018-07-01T09:44:47.954Z,36.60
2018-07-01T09:47:16.372Z,37.90
2018-07-01T09:49:44.842Z,37.80
2018-07-01T09:52:13.366Z,36.50
2018-07-01T09:54:41.805Z,36.20
2018-07-01T09:57:10.276Z,37.80
2018-07-01T09:59:38.732Z,37.80
2018-07-01T10:02:07.175Z,37.30
2018-07-01T10:04:36.457Z,35.40
2018-07-01T10:07:05.279Z,33.40
2018-07-01T10:09:34.079Z,35.00
2018-07-01T10:12:02.581Z,36.80
2018-07-01T10:14:31.057Z,34.10
2018-07-01T10:16:59.635Z,35.40
2018-07-01T10:19:28.318Z,34.60
2018-07-01T10:21:56.814Z,35.20
2018-07-01T10:24:25.287Z,37.00
2018-07-01T10:26:53.787Z,34.30
2018-07-01T10:29:22.247Z,34.50
2018-07-01T10:31:50.711Z,33.60
2018-07-01T10:34:19.158Z,35.00
2018-07-01T10:36:47.620Z,35.40
2018-07-01T10:39:17.289Z,36.20
2018-07-01T10:41:46.547Z,35.50
2018-07-01T10:44:14.968Z,36.40
2018-07-01T10:46:43.447Z,37.10
2018-07-01T10:49:11.884Z,34.90
2018-07-01T10:51:40.479Z,37.20
2018-07-01T10:54:08.927Z,37.60
2018-07-01T10:56:37.418Z,38.70
2018-07-01T10:59:05.898Z,36.20
2018-07-01T11:01:35.276Z,36.90
2018-07-01T11:04:03.743Z,38.30
2018-07-01T11:06:33.149Z,38.90
2018-07-01T11:09:01.583Z,36.60
2018-07-01T11:11:30.083Z,37.10
2018-07-01T11:13:58.531Z,40.00
2018-07-01T11:16:27.602Z,37.90
2018-07-01T11:18:56.107Z,39.20
2018-07-01T11:21:24.564Z,39.60
2018-07-01T11:23:53.230Z,38.20
2018-07-01T11:26:21.705Z,38.30
2018-07-01T11:28:50.627Z,39.20
2018-07-01T11:31:19.080Z,38.40
2018-07-01T11:33:47.498Z,39.20
2018-07-01T11:36:16.004Z,39.00
2018-07-01T11:38:44.491Z,40.90
2018-07-01T11:41:12.994Z,37.20
2018-07-01T11:43:41.452Z,38.40
2018-07-01T11:46:09.890Z,38.50
2018-07-01T11:48:38.371Z,37.60
2018-07-01T11:51:06.926Z,40.00
2018-07-01T11:53:35.394Z,38.60
2018-07-01T11:56:03.895Z,40.10
2018-07-01T11:58:32.371Z,36.50
2018-07-01T12:01:04.025Z,37.70
2018-07-01T12:03:32.509Z,39.10
2018-07-01T12:06:01.166Z,38.10
2018-07-01T12:08:29.652Z,38.70
2018-07-01T12:11:01.033Z,36.30
2018-07-01T12:13:29.549Z,35.70
2018-07-01T12:15:59.447Z,37.30
2018-07-01T12:18:28.219Z,38.80
2018-07-01T12:20:57.628Z,38.00
2018-07-01T12:23:26.149Z,36.60
2018-07-01T12:25:54.572Z,37.00
2018-07-01T12:28:23.125Z,35.30
2018-07-01T12:30:51.591Z,37.10
2018-07-01T12:33:22.408Z,36.70
2018-07-01T12:35:50.973Z,35.80
2018-07-01T12:38:19.454Z,35.20
2018-07-01T12:40:47.907Z,35.70
2018-07-01T12:43:16.382Z,36.30
2018-07-01T12:45:44.865Z,35.20
2018-07-01T12:48:13.364Z,35.70
2018-07-01T12:50:41.812Z,34.50
2018-07-01T12:53:10.254Z,34.90
2018-07-01T12:55:38.712Z,36.50
2018-07-01T12:58:07.214Z,34.00
2018-07-01T13:00:35.691Z,33.60
2018-07-01T13:03:04.170Z,32.90
2018-07-01T13:05:32.626Z,34.20
2018-07-01T13:08:01.077Z,32.80
2018-07-01T13:10:29.560Z,34.40
2018-07-01T13:12:58.063Z,34.10
2018-07-01T13:15:26.519Z,33.70
2018-07-01T13:17:55.579Z,31.60
2018-07-01T13:20:24.043Z,33.20
2018-07-01T13:22:53.486Z,31.60
2018-07-01T13:25:22.008Z,31.00
2018-07-01T13:27:51.095Z,31.30
2018-07-01T13:30:19.526Z,31.10
2018-07-01T13:32:48.030Z,31.10
2018-07-01T13:35:16.602Z,31.50
2018-07-01T13:37:46.482Z,32.90
2018-07-01T13:40:15.007Z,32.10
2018-07-01T13:42:43.507Z,31.80
2018-07-01T13:45:11.953Z,31.80
2018-07-01T13:47:40.420Z,30.20
2018-07-01T13:50:09.009Z,31.20
2018-07-01T13:52:37.412Z,30.10
2018-07-01T13:55:05.895Z,31.50
2018-07-01T13:57:34.383Z,31.30
2018-07-01T14:00:02.924Z,30.00
2018-07-01T14:02:32.547Z,29.50
2018-07-01T14:05:01.075Z,29.50
2018-07-01T14:07:29.532Z,29.60
2018-07-01T14:09:58.520Z,31.90
2018-07-01T14:12:26.993Z,30.20
2018-07-01T14:14:55.481Z,29.40
2018-07-01T14:17:23.941Z,30.00
2018-07-01T14:19:52.556Z,30.00
2018-07-01T14:22:20.997Z,30.30
2018-07-01T14:24:49.439Z,30.80
2018-07-01T14:27:17.976Z,29.40
2018-07-01T14:29:46.381Z,29.20
2018-07-01T14:32:14.818Z,28.50
2018-07-01T14:34:43.281Z,30.10
2018-07-01T14:37:11.756Z,29.60
2018-07-01T14:39:40.472Z,30.50
2018-07-01T14:42:09.710Z,30.90
2018-07-01T14:44:38.187Z,28.80
2018-07-01T14:47:06.696Z,28.40
2018-07-01T14:49:35.798Z,29.70
2018-07-01T14:52:04.391Z,30.50
2018-07-01T14:54:32.870Z,29.90
2018-07-01T14:57:01.413Z,30.50
2018-07-01T14:59:29.960Z,30.60
2018-07-01T15:01:58.505Z,30.70
2018-07-01T15:04:27.012Z,30.60
2018-07-01T15:06:55.446Z,33.50
2018-07-01T15:09:23.869Z,35.80
2018-07-01T15:11:52.442Z,35.10
2018-07-01T15:14:20.962Z,35.00
2018-07-01T15:16:49.446Z,37.20
2018-07-01T15:19:17.975Z,37.50
2018-07-01T15:21:46.413Z,37.20
2018-07-01T15:24:15.081Z,38.10
2018-07-01T15:26:43.563Z,38.90
2018-07-01T15:29:12.281Z,38.60
2018-07-01T15:31:40.671Z,38.40
2018-07-01T15:34:10.251Z,40.50
2018-07-01T15:36:38.677Z,39.70
2018-07-01T15:39:09.517Z,39.50
2018-07-01T15:41:37.971Z,40.10
2018-07-01T15:44:06.445Z,39.90
2018-07-01T15:46:35.002Z,40.40
2018-07-01T15:49:03.665Z,40.10
2018-07-01T15:51:32.147Z,39.90
2018-07-01T15:54:00.745Z,40.50
2018-07-01T15:56:30.494Z,41.80
2018-07-01T15:58:58.970Z,40.50
2018-07-01T16:01:27.986Z,41.30
2018-07-01T16:03:56.433Z,40.30
2018-07-01T16:06:24.990Z,40.50
2018-07-01T16:08:53.404Z,41.60
2018-07-01T16:11:22.120Z,41.10
2018-07-01T16:13:50.594Z,42.60
2018-07-01T16:16:19.089Z,41.60
2018-07-01T16:18:47.553Z,41.70
2018-07-01T16:21:16.052Z,41.50
2018-07-01T16:23:44.464Z,41.40
2018-07-01T16:26:18.239Z,41.90
2018-07-01T16:28:52.121Z,41.50
2018-07-01T16:34:12.018Z,41.80
2018-07-01T16:36:40.466Z,42.10
2018-07-01T16:39:10.927Z,42.10
2018-07-01T16:41:39.379Z,42.80
2018-07-01T16:44:08.101Z,42.40
2018-07-01T16:46:36.577Z,42.00
2018-07-01T16:49:05.251Z,41.90
2018-07-01T16:51:33.710Z,42.50
2018-07-01T16:54:02.248Z,42.10
2018-07-01T16:56:30.695Z,42.60
2018-07-01T16:58:59.375Z,42.80
2018-07-01T17:01:28.061Z,42.70
2018-07-01T17:03:56.517Z,42.10
2018-07-01T17:06:24.959Z,41.70
2018-07-01T17:08:53.899Z,42.50
2018-07-01T17:11:22.390Z,42.50
2018-07-01T17:13:50.894Z,42.70
2018-07-01T17:16:19.404Z,43.20
2018-07-01T17:18:47.853Z,43.40
2018-07-01T17:21:16.317Z,43.20
2018-07-01T17:23:44.793Z,42.10
2018-07-01T17:26:13.838Z,42.40
2018-07-01T17:28:42.697Z,42.90
2018-07-01T17:31:16.660Z,42.10
2018-07-01T17:33:45.138Z,42.70
2018-07-01T17:36:13.658Z,43.10
2018-07-01T17:38:42.191Z,42.60
2018-07-01T17:41:10.629Z,42.80
2018-07-01T17:43:39.658Z,43.20
2018-07-01T17:46:08.144Z,42.90
2018-07-01T17:48:36.658Z,43.00
2018-07-01T17:51:05.210Z,42.70
2018-07-01T17:53:45.072Z,42.70
2018-07-01T17:56:13.542Z,42.60
2018-07-01T17:58:42.028Z,42.30
2018-07-01T18:01:10.494Z,42.30
2018-07-01T18:03:39.474Z,43.10
2018-07-01T18:06:07.991Z,42.00
2018-07-01T18:08:37.613Z,43.40
2018-07-01T18:11:06.092Z,42.70
2018-07-01T18:13:34.629Z,43.10
2018-07-01T18:16:03.051Z,42.80
2018-07-01T18:18:31.536Z,43.30
2018-07-01T18:21:00.995Z,43.00
2018-07-01T18:24:02.966Z,42.90
2018-07-01T18:25:57.973Z,43.30
2018-07-01T18:28:37.862Z,43.10
2018-07-01T18:30:55.121Z,43.20
2018-07-01T18:33:23.707Z,44.30
2018-07-01T18:35:52.225Z,43.90
2018-07-01T18:38:20.689Z,43.90
2018-07-01T18:40:49.638Z,44.20
2018-07-01T18:43:17.915Z,44.50
2018-07-01T18:45:46.454Z,45.00
2018-07-01T18:48:15.026Z,45.10
2018-07-01T18:50:43.515Z,45.50
2018-07-01T18:53:11.967Z,45.50
2018-07-01T18:55:40.773Z,45.60
2018-07-01T18:58:09.201Z,45.30
2018-07-01T19:00:37.687Z,45.40
2018-07-01T19:03:06.142Z,45.20
2018-07-01T19:05:34.605Z,46.00
2018-07-01T19:08:03.090Z,46.20
2018-07-01T19:10:31.741Z,49.40
2018-07-01T19:13:00.219Z,47.10
2018-07-01T19:15:28.636Z,46.20
2018-07-01T19:17:57.101Z,46.60
2018-07-01T19:20:25.598Z,47.60
2018-07-01T19:22:54.075Z,47.60
2018-07-01T19:25:22.575Z,47.80
2018-07-01T19:27:51.090Z,47.10
2018-07-01T19:30:21.667Z,47.10
2018-07-01T19:32:50.244Z,47.30
2018-07-01T19:38:17.303Z,47.90
2018-07-01T19:40:45.766Z,48.00
2018-07-01T19:43:14.307Z,47.80
2018-07-01T19:45:42.747Z,48.40
2018-07-01T19:48:11.326Z,49.00
2018-07-01T19:50:39.814Z,49.20
2018-07-01T19:53:08.278Z,48.40
2018-07-01T19:55:36.722Z,49.10
2018-07-01T19:58:05.247Z,49.00
2018-07-01T20:00:33.719Z,48.80
2018-07-01T20:03:02.241Z,48.90
2018-07-01T20:05:30.698Z,49.40
2018-07-01T20:07:59.195Z,49.50
2018-07-01T20:10:27.675Z,50.20
2018-07-01T20:12:56.134Z,49.90
2018-07-01T20:15:24.606Z,49.50
2018-07-01T20:17:53.564Z,50.10
2018-07-01T20:20:22.010Z,49.50
2018-07-01T20:22:50.478Z,50.40
2018-07-01T20:25:18.935Z,49.80
2018-07-01T20:27:47.411Z,49.80
2018-07-01T20:30:15.871Z,51.00
2018-07-01T20:32:44.358Z,50.10
2018-07-01T20:35:12.843Z,53.50
2018-07-01T20:37:41.530Z,52.70
2018-07-01T20:40:10.588Z,50.80
2018-07-01T20:42:39.300Z,51.00
2018-07-01T20:45:07.810Z,50.80
2018-07-01T20:47:36.288Z,50.80
2018-07-01T20:50:04.722Z,50.90
2018-07-01T20:52:33.203Z,50.80
2018-07-01T20:55:01.676Z,51.40
2018-07-01T20:57:30.118Z,51.50
2018-07-01T20:59:58.595Z,50.80
2018-07-01T21:02:27.078Z,51.90
2018-07-01T21:04:55.560Z,51.70
2018-07-01T21:07:24.020Z,51.80
2018-07-01T21:09:52.469Z,52.20
2018-07-01T21:12:20.948Z,52.70
2018-07-01T21:14:49.417Z,52.00
2018-07-01T21:17:17.873Z,52.60
2018-07-01T21:19:46.301Z,53.00
2018-07-01T21:22:14.781Z,52.30
2018-07-01T21:24:43.911Z,52.50
2018-07-01T21:27:12.370Z,53.40
2018-07-01T21:29:40.912Z,53.50
2018-07-01T21:32:09.515Z,53.20
2018-07-01T21:34:37.957Z,53.30
2018-07-01T21:37:06.527Z,53.30
2018-07-01T21:39:35.042Z,54.10
2018-07-01T21:42:03.513Z,53.70
2018-07-01T21:44:32.700Z,53.60
2018-07-01T21:47:01.816Z,53.90
2018-07-01T21:49:30.285Z,54.80
2018-07-01T21:51:59.693Z,54.60
2018-07-01T21:54:28.207Z,54.70
2018-07-01T21:56:56.686Z,54.50
2018-07-01T21:59:25.154Z,55.00
2018-07-01T22:01:53.636Z,55.60
2018-07-01T22:04:22.279Z,55.10
2018-07-01T22:06:56.984Z,55.00
2018-07-01T22:09:25.459Z,55.20
2018-07-01T22:12:06.123Z,55.60
2018-07-01T22:14:44.601Z,55.80
2018-07-01T22:17:13.666Z,56.20
2018-07-01T22:19:42.134Z,55.90
2018-07-01T22:22:10.598Z,56.20
2018-07-01T22:27:08.121Z,57.10
2018-07-01T22:29:36.580Z,56.70
2018-07-01T22:32:05.050Z,57.20
2018-07-01T22:34:33.566Z,56.60
2018-07-01T22:37:02.047Z,57.10
2018-07-01T22:39:31.205Z,57.10
2018-07-01T22:42:00.751Z,57.10
2018-07-01T22:44:30.060Z,58.00
2018-07-01T22:46:58.489Z,57.20
2018-07-01T22:49:26.974Z,57.00
2018-07-01T22:51:55.450Z,57.90
2018-07-01T22:54:23.904Z,58.70
2018-07-01T22:56:52.398Z,58.30
2018-07-01T22:59:20.866Z,58.60
2018-07-01T23:03:09.987Z,57.70
2018-07-01T23:05:38.444Z,58.00
2018-07-01T23:10:36.206Z,58.70
2018-07-01T23:13:04.829Z,59.00
2018-07-01T23:15:33.518Z,58.60
2018-07-01T23:18:01.987Z,59.30
2018-07-01T23:20:30.495Z,59.50
2018-07-01T23:22:58.973Z,59.40
2018-07-01T23:25:27.458Z,60.00
2018-07-01T23:27:55.917Z,59.30
2018-07-01T23:30:24.371Z,59.60
2018-07-01T23:32:52.837Z,59.40
2018-07-01T23:35:21.297Z,59.70
2018-07-01T23:37:49.720Z,59.40
2018-07-01T23:40:18.209Z,59.50
2018-07-01T23:42:46.609Z,61.00
2018-07-01T23:45:16.101Z,60.00
2018-07-01T23:47:44.657Z,60.00
2018-07-01T23:50:13.108Z,59.90
2018-07-01T23:52:41.580Z,59.70
2018-07-01T23:55:10.427Z,61.00
2018-07-01T23:57:38.896Z,60.40
